sensor_id;sensor_type;location;lat;lon;timestamp;P1;durP1;ratioP1;P2;durP2;ratioP2
46653;SDS011;38960;51.074;17.004;2023-03-14T00:01:15;7.78;;;4.28;;
46653;SDS011;38960;51.074;17.004;2023-03-14T00:03:43;8.20;;;3.53;;
46653;SDS011;38960;51.074;17.004;2023-03-14T00:06:09;7.35;;;3.42;;
46653;SDS011;38960;51.074;17.004;2023-03-14T00:08:36;10.75;;;4.40;;
46653;SDS011;38960;51.074;17.004;2023-03-14T00:11:09;7.47;;;3.83;;
46653;SDS011;38960;51.074;17.004;2023-03-14T00:13:36;11.48;;;3.20;;
46653;SDS011;38960;51.074;17.004;2023-03-14T00:16:20;6.90;;;3.13;;
46653;SDS011;38960;51.074;17.004;2023-03-14T00:18:46;7.65;;;3.17;;
46653;SDS011;38960;51.074;17.004;2023-03-14T00:21:12;5.80;;;3.45;;
46653;SDS011;38960;51.074;17.004;2023-03-14T00:23:38;6.82;;;3.50;;
46653;SDS011;38960;51.074;17.004;2023-03-14T00:28:35;6.20;;;3.38;;
46653;SDS011;38960;51.074;17.004;2023-03-14T00:31:05;8.15;;;3.88;;
46653;SDS011;38960;51.074;17.004;2023-03-14T00:33:32;8.30;;;4.15;;
46653;SDS011;38960;51.074;17.004;2023-03-14T00:35:59;6.80;;;4.13;;
46653;SDS011;38960;51.074;17.004;2023-03-14T00:38:28;8.38;;;4.05;;
46653;SDS011;38960;51.074;17.004;2023-03-14T00:40:56;8.30;;;3.97;;
46653;SDS011;38960;51.074;17.004;2023-03-14T00:43:22;9.52;;;4.35;;
46653;SDS011;38960;51.074;17.004;2023-03-14T00:45:51;9.65;;;4.38;;
46653;SDS011;38960;51.074;17.004;2023-03-14T00:48:17;8.02;;;3.53;;
46653;SDS011;38960;51.074;17.004;2023-03-14T00:50:44;8.93;;;3.83;;
46653;SDS011;38960;51.074;17.004;2023-03-14T00:53:10;5.50;;;3.40;;
46653;SDS011;38960;51.074;17.004;2023-03-14T00:55:36;5.53;;;3.30;;
46653;SDS011;38960;51.074;17.004;2023-03-14T00:58:03;5.85;;;4.03;;
46653;SDS011;38960;51.074;17.004;2023-03-14T01:00:29;10.80;;;3.83;;
46653;SDS011;38960;51.074;17.004;2023-03-14T01:02:54;5.32;;;3.15;;
46653;SDS011;38960;51.074;17.004;2023-03-14T01:05:21;7.30;;;3.35;;
46653;SDS011;38960;51.074;17.004;2023-03-14T01:07:47;4.97;;;2.63;;
46653;SDS011;38960;51.074;17.004;2023-03-14T01:10:13;4.72;;;2.88;;
46653;SDS011;38960;51.074;17.004;2023-03-14T01:12:39;6.13;;;3.25;;
46653;SDS011;38960;51.074;17.004;2023-03-14T01:15:04;6.20;;;3.08;;
46653;SDS011;38960;51.074;17.004;2023-03-14T01:17:31;6.55;;;3.50;;
46653;SDS011;38960;51.074;17.004;2023-03-14T01:19:57;9.23;;;3.92;;
46653;SDS011;38960;51.074;17.004;2023-03-14T01:22:23;6.43;;;3.53;;
46653;SDS011;38960;51.074;17.004;2023-03-14T01:24:48;6.45;;;3.53;;
46653;SDS011;38960;51.074;17.004;2023-03-14T01:27:14;7.45;;;3.25;;
46653;SDS011;38960;51.074;17.004;2023-03-14T01:29:39;4.82;;;3.20;;
46653;SDS011;38960;51.074;17.004;2023-03-14T01:32:05;7.07;;;3.60;;
46653;SDS011;38960;51.074;17.004;2023-03-14T01:34:31;6.18;;;3.10;;
46653;SDS011;38960;51.074;17.004;2023-03-14T01:36:57;5.95;;;3.17;;
46653;SDS011;38960;51.074;17.004;2023-03-14T01:39:22;8.43;;;3.70;;
46653;SDS011;38960;51.074;17.004;2023-03-14T01:41:48;6.55;;;3.60;;
46653;SDS011;38960;51.074;17.004;2023-03-14T01:44:15;5.40;;;3.22;;
46653;SDS011;38960;51.074;17.004;2023-03-14T01:46:44;6.95;;;3.25;;
46653;SDS011;38960;51.074;17.004;2023-03-14T01:52:03;5.15;;;3.42;;
46653;SDS011;38960;51.074;17.004;2023-03-14T01:54:36;5.25;;;3.03;;
46653;SDS011;38960;51.074;17.004;2023-03-14T01:59:37;7.72;;;3.17;;
46653;SDS011;38960;51.074;17.004;2023-03-14T02:02:04;4.78;;;2.47;;
46653;SDS011;38960;51.074;17.004;2023-03-14T02:04:32;6.03;;;3.15;;
46653;SDS011;38960;51.074;17.004;2023-03-14T02:07:05;9.75;;;2.65;;
46653;SDS011;38960;51.074;17.004;2023-03-14T02:09:40;6.38;;;3.20;;
46653;SDS011;38960;51.074;17.004;2023-03-14T02:12:09;7.22;;;3.50;;
46653;SDS011;38960;51.074;17.004;2023-03-14T02:14:49;5.93;;;3.42;;
46653;SDS011;38960;51.074;17.004;2023-03-14T02:17:35;6.22;;;3.38;;
46653;SDS011;38960;51.074;17.004;2023-03-14T02:23:04;6.93;;;3.55;;
46653;SDS011;38960;51.074;17.004;2023-03-14T02:25:33;5.85;;;3.38;;
46653;SDS011;38960;51.074;17.004;2023-03-14T02:28:09;7.45;;;3.42;;
46653;SDS011;38960;51.074;17.004;2023-03-14T02:30:36;7.13;;;3.65;;
46653;SDS011;38960;51.074;17.004;2023-03-14T02:33:04;7.28;;;4.15;;
46653;SDS011;38960;51.074;17.004;2023-03-14T02:35:45;6.15;;;3.38;;
46653;SDS011;38960;51.074;17.004;2023-03-14T02:38:22;6.15;;;3.35;;
46653;SDS011;38960;51.074;17.004;2023-03-14T02:40:52;12.15;;;3.78;;
46653;SDS011;38960;51.074;17.004;2023-03-14T02:43:18;7.90;;;3.63;;
46653;SDS011;38960;51.074;17.004;2023-03-14T02:45:50;7.35;;;3.35;;
46653;SDS011;38960;51.074;17.004;2023-03-14T02:48:33;7.28;;;3.50;;
46653;SDS011;38960;51.074;17.004;2023-03-14T02:51:00;9.38;;;3.70;;
46653;SDS011;38960;51.074;17.004;2023-03-14T02:53:28;6.25;;;3.38;;
46653;SDS011;38960;51.074;17.004;2023-03-14T02:55:59;8.48;;;3.15;;
46653;SDS011;38960;51.074;17.004;2023-03-14T02:58:25;8.20;;;3.53;;
46653;SDS011;38960;51.074;17.004;2023-03-14T03:00:58;7.03;;;2.72;;
46653;SDS011;38960;51.074;17.004;2023-03-14T03:03:23;9.23;;;3.30;;
46653;SDS011;38960;51.074;17.004;2023-03-14T03:05:50;7.68;;;3.20;;
46653;SDS011;38960;51.074;17.004;2023-03-14T03:08:16;5.97;;;3.30;;
46653;SDS011;38960;51.074;17.004;2023-03-14T03:10:46;6.13;;;2.78;;
46653;SDS011;38960;51.074;17.004;2023-03-14T03:13:12;5.13;;;2.78;;
46653;SDS011;38960;51.074;17.004;2023-03-14T03:15:39;6.85;;;3.45;;
46653;SDS011;38960;51.074;17.004;2023-03-14T03:18:06;6.63;;;3.35;;
46653;SDS011;38960;51.074;17.004;2023-03-14T03:20:32;7.18;;;3.50;;
46653;SDS011;38960;51.074;17.004;2023-03-14T03:22:58;7.47;;;2.80;;
46653;SDS011;38960;51.074;17.004;2023-03-14T03:25:24;5.78;;;2.88;;
46653;SDS011;38960;51.074;17.004;2023-03-14T03:27:50;7.22;;;3.40;;
46653;SDS011;38960;51.074;17.004;2023-03-14T03:30:17;4.05;;;2.45;;
46653;SDS011;38960;51.074;17.004;2023-03-14T03:32:43;7.47;;;2.72;;
46653;SDS011;38960;51.074;17.004;2023-03-14T03:35:10;7.20;;;3.25;;
46653;SDS011;38960;51.074;17.004;2023-03-14T03:37:37;6.82;;;2.70;;
46653;SDS011;38960;51.074;17.004;2023-03-14T03:40:05;8.43;;;2.63;;
46653;SDS011;38960;51.074;17.004;2023-03-14T03:42:33;5.38;;;2.78;;
46653;SDS011;38960;51.074;17.004;2023-03-14T03:45:00;4.47;;;2.42;;
46653;SDS011;38960;51.074;17.004;2023-03-14T03:47:30;7.18;;;2.75;;
46653;SDS011;38960;51.074;17.004;2023-03-14T03:49:56;5.10;;;3.03;;
46653;SDS011;38960;51.074;17.004;2023-03-14T03:52:21;7.38;;;3.03;;
46653;SDS011;38960;51.074;17.004;2023-03-14T03:54:47;4.35;;;2.85;;
46653;SDS011;38960;51.074;17.004;2023-03-14T03:57:13;7.18;;;2.75;;
46653;SDS011;38960;51.074;17.004;2023-03-14T03:59:38;7.10;;;2.95;;
46653;SDS011;38960;51.074;17.004;2023-03-14T04:02:07;7.22;;;3.50;;
46653;SDS011;38960;51.074;17.004;2023-03-14T04:04:32;6.40;;;2.75;;
46653;SDS011;38960;51.074;17.004;2023-03-14T04:07:01;5.60;;;2.28;;
46653;SDS011;38960;51.074;17.004;2023-03-14T04:09:27;5.55;;;3.00;;
46653;SDS011;38960;51.074;17.004;2023-03-14T04:12:11;6.13;;;2.95;;
46653;SDS011;38960;51.074;17.004;2023-03-14T04:15:07;4.75;;;2.67;;
46653;SDS011;38960;51.074;17.004;2023-03-14T04:17:35;6.50;;;2.67;;
46653;SDS011;38960;51.074;17.004;2023-03-14T04:20:00;11.82;;;3.13;;
46653;SDS011;38960;51.074;17.004;2023-03-14T04:22:34;5.55;;;2.83;;
46653;SDS011;38960;51.074;17.004;2023-03-14T04:24:59;7.82;;;2.60;;
46653;SDS011;38960;51.074;17.004;2023-03-14T04:27:28;6.30;;;2.83;;
46653;SDS011;38960;51.074;17.004;2023-03-14T04:29:55;7.20;;;2.83;;
46653;SDS011;38960;51.074;17.004;2023-03-14T04:32:35;7.78;;;2.75;;
46653;SDS011;38960;51.074;17.004;2023-03-14T04:35:00;5.18;;;2.50;;
46653;SDS011;38960;51.074;17.004;2023-03-14T04:37:26;5.55;;;2.50;;
46653;SDS011;38960;51.074;17.004;2023-03-14T04:39:52;5.32;;;2.35;;
46653;SDS011;38960;51.074;17.004;2023-03-14T04:42:25;4.75;;;2.60;;
46653;SDS011;38960;51.074;17.004;2023-03-14T04:44:51;4.97;;;2.60;;
46653;SDS011;38960;51.074;17.004;2023-03-14T04:47:20;6.32;;;2.60;;
46653;SDS011;38960;51.074;17.004;2023-03-14T04:49:47;4.25;;;2.65;;
46653;SDS011;38960;51.074;17.004;2023-03-14T04:52:14;6.82;;;2.90;;
46653;SDS011;38960;51.074;17.004;2023-03-14T04:54:40;4.75;;;2.90;;
46653;SDS011;38960;51.074;17.004;2023-03-14T04:57:06;6.18;;;2.83;;
46653;SDS011;38960;51.074;17.004;2023-03-14T04:59:34;5.13;;;3.17;;
46653;SDS011;38960;51.074;17.004;2023-03-14T05:02:14;5.28;;;2.70;;
46653;SDS011;38960;51.074;17.004;2023-03-14T05:04:53;5.63;;;2.63;;
46653;SDS011;38960;51.074;17.004;2023-03-14T05:07:37;6.07;;;3.10;;
46653;SDS011;38960;51.074;17.004;2023-03-14T05:10:20;5.50;;;2.95;;
46653;SDS011;38960;51.074;17.004;2023-03-14T05:13:04;6.57;;;3.55;;
46653;SDS011;38960;51.074;17.004;2023-03-14T05:15:52;7.30;;;3.00;;
46653;SDS011;38960;51.074;17.004;2023-03-14T05:18:52;5.10;;;2.75;;
46653;SDS011;38960;51.074;17.004;2023-03-14T05:21:33;7.78;;;2.80;;
46653;SDS011;38960;51.074;17.004;2023-03-14T05:24:13;5.35;;;3.13;;
46653;SDS011;38960;51.074;17.004;2023-03-14T05:26:57;6.60;;;3.13;;
46653;SDS011;38960;51.074;17.004;2023-03-14T05:29:44;11.02;;;3.80;;
46653;SDS011;38960;51.074;17.004;2023-03-14T05:32:32;7.40;;;3.13;;
46653;SDS011;38960;51.074;17.004;2023-03-14T05:35:07;8.32;;;3.67;;
46653;SDS011;38960;51.074;17.004;2023-03-14T05:37:46;6.07;;;3.03;;
46653;SDS011;38960;51.074;17.004;2023-03-14T05:40:27;4.95;;;2.75;;
46653;SDS011;38960;51.074;17.004;2023-03-14T05:43:05;5.80;;;3.42;;
46653;SDS011;38960;51.074;17.004;2023-03-14T05:45:38;5.88;;;2.45;;
46653;SDS011;38960;51.074;17.004;2023-03-14T05:48:22;6.50;;;3.28;;
46653;SDS011;38960;51.074;17.004;2023-03-14T05:51:04;8.90;;;3.88;;
46653;SDS011;38960;51.074;17.004;2023-03-14T05:53:45;9.47;;;3.33;;
46653;SDS011;38960;51.074;17.004;2023-03-14T05:56:29;8.07;;;3.05;;
46653;SDS011;38960;51.074;17.004;2023-03-14T05:59:06;7.72;;;2.88;;
46653;SDS011;38960;51.074;17.004;2023-03-14T06:01:56;5.60;;;2.85;;
46653;SDS011;38960;51.074;17.004;2023-03-14T06:04:25;6.40;;;2.83;;
46653;SDS011;38960;51.074;17.004;2023-03-14T06:06:55;7.65;;;2.67;;
46653;SDS011;38960;51.074;17.004;2023-03-14T06:09:21;6.97;;;3.03;;
46653;SDS011;38960;51.074;17.004;2023-03-14T06:11:49;6.78;;;2.60;;
46653;SDS011;38960;51.074;17.004;2023-03-14T06:14:15;5.45;;;2.72;;
46653;SDS011;38960;51.074;17.004;2023-03-14T06:16:44;7.38;;;3.45;;
46653;SDS011;38960;51.074;17.004;2023-03-14T06:19:10;9.88;;;2.95;;
46653;SDS011;38960;51.074;17.004;2023-03-14T06:21:37;5.10;;;2.75;;
46653;SDS011;38960;51.074;17.004;2023-03-14T06:24:02;6.85;;;3.47;;
46653;SDS011;38960;51.074;17.004;2023-03-14T06:26:31;5.72;;;2.70;;
46653;SDS011;38960;51.074;17.004;2023-03-14T06:28:57;4.25;;;2.88;;
46653;SDS011;38960;51.074;17.004;2023-03-14T06:31:31;5.30;;;2.57;;
46653;SDS011;38960;51.074;17.004;2023-03-14T06:34:01;5.80;;;3.05;;
46653;SDS011;38960;51.074;17.004;2023-03-14T06:36:30;3.88;;;2.80;;
46653;SDS011;38960;51.074;17.004;2023-03-14T06:38:56;5.65;;;3.13;;
46653;SDS011;38960;51.074;17.004;2023-03-14T06:41:22;9.05;;;3.28;;
46653;SDS011;38960;51.074;17.004;2023-03-14T06:43:51;5.97;;;2.92;;
46653;SDS011;38960;51.074;17.004;2023-03-14T06:46:19;4.90;;;2.60;;
46653;SDS011;38960;51.074;17.004;2023-03-14T06:48:45;4.55;;;2.60;;
46653;SDS011;38960;51.074;17.004;2023-03-14T06:51:11;4.03;;;2.90;;
46653;SDS011;38960;51.074;17.004;2023-03-14T06:53:37;6.00;;;2.88;;
46653;SDS011;38960;51.074;17.004;2023-03-14T06:56:04;6.78;;;3.17;;
46653;SDS011;38960;51.074;17.004;2023-03-14T06:58:32;6.15;;;3.25;;
46653;SDS011;38960;51.074;17.004;2023-03-14T07:00:59;7.85;;;3.65;;
46653;SDS011;38960;51.074;17.004;2023-03-14T07:03:30;7.57;;;3.38;;
46653;SDS011;38960;51.074;17.004;2023-03-14T07:05:56;8.65;;;3.28;;
46653;SDS011;38960;51.074;17.004;2023-03-14T07:08:21;5.28;;;2.92;;
46653;SDS011;38960;51.074;17.004;2023-03-14T07:10:47;7.82;;;3.30;;
46653;SDS011;38960;51.074;17.004;2023-03-14T07:13:16;6.97;;;3.47;;
46653;SDS011;38960;51.074;17.004;2023-03-14T07:15:54;7.97;;;3.30;;
46653;SDS011;38960;51.074;17.004;2023-03-14T07:18:20;7.07;;;4.10;;
46653;SDS011;38960;51.074;17.004;2023-03-14T07:20:48;9.18;;;4.05;;
46653;SDS011;38960;51.074;17.004;2023-03-14T07:23:18;7.20;;;3.70;;
46653;SDS011;38960;51.074;17.004;2023-03-14T07:25:49;13.10;;;4.25;;
46653;SDS011;38960;51.074;17.004;2023-03-14T07:28:18;8.70;;;3.88;;
46653;SDS011;38960;51.074;17.004;2023-03-14T07:30:46;11.85;;;4.97;;
46653;SDS011;38960;51.074;17.004;2023-03-14T07:33:17;8.80;;;4.35;;
46653;SDS011;38960;51.074;17.004;2023-03-14T07:35:43;9.70;;;4.28;;
46653;SDS011;38960;51.074;17.004;2023-03-14T07:38:08;8.45;;;3.50;;
46653;SDS011;38960;51.074;17.004;2023-03-14T07:40:40;9.18;;;4.60;;
46653;SDS011;38960;51.074;17.004;2023-03-14T07:43:06;7.72;;;4.10;;
46653;SDS011;38960;51.074;17.004;2023-03-14T07:45:45;11.60;;;5.15;;
46653;SDS011;38960;51.074;17.004;2023-03-14T07:48:11;6.75;;;3.83;;
46653;SDS011;38960;51.074;17.004;2023-03-14T07:50:37;11.75;;;5.43;;
46653;SDS011;38960;51.074;17.004;2023-03-14T07:53:02;9.68;;;4.75;;
46653;SDS011;38960;51.074;17.004;2023-03-14T07:55:28;7.32;;;3.65;;
46653;SDS011;38960;51.074;17.004;2023-03-14T07:57:53;7.00;;;3.65;;
46653;SDS011;38960;51.074;17.004;2023-03-14T08:00:21;9.75;;;3.30;;
46653;SDS011;38960;51.074;17.004;2023-03-14T08:02:50;8.23;;;3.60;;
46653;SDS011;38960;51.074;17.004;2023-03-14T08:05:16;5.78;;;3.30;;
46653;SDS011;38960;51.074;17.004;2023-03-14T08:07:42;5.40;;;3.25;;
46653;SDS011;38960;51.074;17.004;2023-03-14T08:10:08;7.93;;;4.03;;
46653;SDS011;38960;51.074;17.004;2023-03-14T08:12:34;7.75;;;3.60;;
46653;SDS011;38960;51.074;17.004;2023-03-14T08:15:00;8.70;;;3.38;;
46653;SDS011;38960;51.074;17.004;2023-03-14T08:17:26;6.90;;;3.65;;
46653;SDS011;38960;51.074;17.004;2023-03-14T08:19:54;8.18;;;3.88;;
46653;SDS011;38960;51.074;17.004;2023-03-14T08:22:20;8.05;;;3.58;;
46653;SDS011;38960;51.074;17.004;2023-03-14T08:24:45;7.82;;;4.15;;
46653;SDS011;38960;51.074;17.004;2023-03-14T08:27:13;6.53;;;4.15;;
46653;SDS011;38960;51.074;17.004;2023-03-14T08:29:40;10.20;;;4.72;;
46653;SDS011;38960;51.074;17.004;2023-03-14T08:32:06;8.23;;;4.15;;
46653;SDS011;38960;51.074;17.004;2023-03-14T08:34:33;9.82;;;4.40;;
46653;SDS011;38960;51.074;17.004;2023-03-14T08:36:58;7.93;;;3.97;;
46653;SDS011;38960;51.074;17.004;2023-03-14T08:39:24;7.55;;;3.90;;
46653;SDS011;38960;51.074;17.004;2023-03-14T08:41:52;8.57;;;4.28;;
46653;SDS011;38960;51.074;17.004;2023-03-14T08:44:18;9.95;;;4.63;;
46653;SDS011;38960;51.074;17.004;2023-03-14T08:46:43;9.80;;;4.40;;
46653;SDS011;38960;51.074;17.004;2023-03-14T08:49:09;7.57;;;3.47;;
46653;SDS011;38960;51.074;17.004;2023-03-14T08:51:34;8.27;;;3.70;;
46653;SDS011;38960;51.074;17.004;2023-03-14T08:54:00;10.38;;;3.65;;
46653;SDS011;38960;51.074;17.004;2023-03-14T08:56:25;9.52;;;4.50;;
46653;SDS011;38960;51.074;17.004;2023-03-14T08:58:51;8.98;;;3.90;;
46653;SDS011;38960;51.074;17.004;2023-03-14T09:01:16;8.23;;;4.70;;
46653;SDS011;38960;51.074;17.004;2023-03-14T09:03:44;7.32;;;3.72;;
46653;SDS011;38960;51.074;17.004;2023-03-14T09:06:11;5.78;;;3.35;;
46653;SDS011;38960;51.074;17.004;2023-03-14T09:08:36;5.97;;;3.42;;
46653;SDS011;38960;51.074;17.004;2023-03-14T09:11:02;7.75;;;3.63;;
46653;SDS011;38960;51.074;17.004;2023-03-14T09:13:28;5.38;;;3.53;;
46653;SDS011;38960;51.074;17.004;2023-03-14T09:15:54;9.38;;;4.25;;
46653;SDS011;38960;51.074;17.004;2023-03-14T09:18:20;5.22;;;3.00;;
46653;SDS011;38960;51.074;17.004;2023-03-14T09:20:46;7.93;;;3.40;;
46653;SDS011;38960;51.074;17.004;2023-03-14T09:23:12;7.05;;;4.00;;
46653;SDS011;38960;51.074;17.004;2023-03-14T09:25:37;8.82;;;3.78;;
46653;SDS011;38960;51.074;17.004;2023-03-14T09:28:03;6.45;;;3.97;;
46653;SDS011;38960;51.074;17.004;2023-03-14T09:30:29;7.38;;;3.65;;
46653;SDS011;38960;51.074;17.004;2023-03-14T09:32:55;9.80;;;3.83;;
46653;SDS011;38960;51.074;17.004;2023-03-14T09:35:22;8.13;;;3.22;;
46653;SDS011;38960;51.074;17.004;2023-03-14T09:37:47;8.65;;;4.07;;
46653;SDS011;38960;51.074;17.004;2023-03-14T09:40:16;11.50;;;3.40;;
46653;SDS011;38960;51.074;17.004;2023-03-14T09:42:43;7.00;;;4.00;;
46653;SDS011;38960;51.074;17.004;2023-03-14T09:45:13;6.53;;;3.75;;
46653;SDS011;38960;51.074;17.004;2023-03-14T09:47:42;7.60;;;3.80;;
46653;SDS011;38960;51.074;17.004;2023-03-14T09:50:13;9.45;;;4.70;;
46653;SDS011;38960;51.074;17.004;2023-03-14T09:52:40;7.28;;;3.13;;
46653;SDS011;38960;51.074;17.004;2023-03-14T09:55:12;6.88;;;4.22;;
46653;SDS011;38960;51.074;17.004;2023-03-14T09:57:40;7.43;;;4.35;;
46653;SDS011;38960;51.074;17.004;2023-03-14T10:00:10;10.75;;;4.32;;
46653;SDS011;38960;51.074;17.004;2023-03-14T10:02:54;7.75;;;3.72;;
46653;SDS011;38960;51.074;17.004;2023-03-14T10:05:23;10.20;;;3.70;;
46653;SDS011;38960;51.074;17.004;2023-03-14T10:07:49;7.57;;;4.07;;
46653;SDS011;38960;51.074;17.004;2023-03-14T10:10:19;7.43;;;3.88;;
46653;SDS011;38960;51.074;17.004;2023-03-14T10:12:56;10.98;;;4.28;;
46653;SDS011;38960;51.074;17.004;2023-03-14T10:15:31;7.93;;;3.88;;
46653;SDS011;38960;51.074;17.004;2023-03-14T10:17:58;8.05;;;3.83;;
46653;SDS011;38960;51.074;17.004;2023-03-14T10:22:59;6.43;;;3.70;;
46653;SDS011;38960;51.074;17.004;2023-03-14T10:25:32;6.32;;;4.05;;
46653;SDS011;38960;51.074;17.004;2023-03-14T10:28:02;7.03;;;3.78;;
46653;SDS011;38960;51.074;17.004;2023-03-14T10:33:10;8.07;;;4.22;;
46653;SDS011;38960;51.074;17.004;2023-03-14T10:36:00;8.75;;;4.00;;
46653;SDS011;38960;51.074;17.004;2023-03-14T10:38:32;7.53;;;4.07;;
46653;SDS011;38960;51.074;17.004;2023-03-14T10:40:59;6.87;;;3.80;;
46653;SDS011;38960;51.074;17.004;2023-03-14T10:43:26;8.95;;;4.45;;
46653;SDS011;38960;51.074;17.004;2023-03-14T10:46:00;7.45;;;4.57;;
46653;SDS011;38960;51.074;17.004;2023-03-14T10:48:35;9.63;;;5.18;;
46653;SDS011;38960;51.074;17.004;2023-03-14T10:53:39;12.80;;;4.25;;
46653;SDS011;38960;51.074;17.004;2023-03-14T10:56:18;16.38;;;4.57;;
46653;SDS011;38960;51.074;17.004;2023-03-14T10:58:47;9.85;;;4.40;;
46653;SDS011;38960;51.074;17.004;2023-03-14T11:01:32;10.40;;;4.47;;
46653;SDS011;38960;51.074;17.004;2023-03-14T11:07:09;9.02;;;3.95;;
46653;SDS011;38960;51.074;17.004;2023-03-14T11:12:38;6.30;;;3.40;;
46653;SDS011;38960;51.074;17.004;2023-03-14T11:34:01;7.97;;;3.22;;
46653;SDS011;38960;51.074;17.004;2023-03-14T11:36:39;10.00;;;3.58;;
46653;SDS011;38960;51.074;17.004;2023-03-14T11:39:08;8.95;;;2.83;;
46653;SDS011;38960;51.074;17.004;2023-03-14T11:41:39;8.97;;;3.23;;
46653;SDS011;38960;51.074;17.004;2023-03-14T11:44:19;8.45;;;2.92;;
46653;SDS011;38960;51.074;17.004;2023-03-14T11:47:02;9.65;;;2.53;;
46653;SDS011;38960;51.074;17.004;2023-03-14T11:49:45;7.80;;;2.75;;
46653;SDS011;38960;51.074;17.004;2023-03-14T11:52:35;4.35;;;2.78;;
46653;SDS011;38960;51.074;17.004;2023-03-14T11:57:42;7.32;;;2.67;;
46653;SDS011;38960;51.074;17.004;2023-03-14T12:02:47;6.28;;;2.83;;
46653;SDS011;38960;51.074;17.004;2023-03-14T12:08:44;7.90;;;3.28;;
46653;SDS011;38960;51.074;17.004;2023-03-14T12:16:52;7.18;;;3.40;;
46653;SDS011;38960;51.074;17.004;2023-03-14T12:19:44;7.30;;;3.78;;
46653;SDS011;38960;51.074;17.004;2023-03-14T12:24:51;9.90;;;4.45;;
46653;SDS011;38960;51.074;17.004;2023-03-14T12:35:42;11.55;;;4.13;;
46653;SDS011;38960;51.074;17.004;2023-03-14T12:38:23;7.43;;;4.47;;
46653;SDS011;38960;51.074;17.004;2023-03-14T12:41:06;9.25;;;5.72;;
46653;SDS011;38960;51.074;17.004;2023-03-14T12:43:45;11.80;;;5.05;;
46653;SDS011;38960;51.074;17.004;2023-03-14T12:51:13;9.93;;;4.15;;
46653;SDS011;38960;51.074;17.004;2023-03-14T12:59:09;6.28;;;4.32;;
46653;SDS011;38960;51.074;17.004;2023-03-14T13:04:33;6.10;;;4.38;;
46653;SDS011;38960;51.074;17.004;2023-03-14T13:15:44;8.40;;;4.85;;
46653;SDS011;38960;51.074;17.004;2023-03-14T13:20:37;8.18;;;4.70;;
46653;SDS011;38960;51.074;17.004;2023-03-14T13:23:18;17.00;;;7.03;;
46653;SDS011;38960;51.074;17.004;2023-03-14T13:25:45;12.05;;;6.40;;
46653;SDS011;38960;51.074;17.004;2023-03-14T13:28:11;9.98;;;5.97;;
46653;SDS011;38960;51.074;17.004;2023-03-14T13:30:40;10.18;;;5.03;;
46653;SDS011;38960;51.074;17.004;2023-03-14T13:33:11;8.10;;;4.97;;
46653;SDS011;38960;51.074;17.004;2023-03-14T13:35:40;12.88;;;4.57;;
46653;SDS011;38960;51.074;17.004;2023-03-14T13:38:20;11.88;;;4.40;;
46653;SDS011;38960;51.074;17.004;2023-03-14T13:40:48;8.45;;;3.28;;
46653;SDS011;38960;51.074;17.004;2023-03-14T13:43:16;6.95;;;3.28;;
46653;SDS011;38960;51.074;17.004;2023-03-14T13:45:47;6.35;;;3.33;;
46653;SDS011;38960;51.074;17.004;2023-03-14T13:48:15;7.03;;;3.35;;
46653;SDS011;38960;51.074;17.004;2023-03-14T13:53:31;6.55;;;3.35;;
46653;SDS011;38960;51.074;17.004;2023-03-14T13:55:57;5.25;;;3.30;;
46653;SDS011;38960;51.074;17.004;2023-03-14T13:58:28;7.15;;;3.50;;
46653;SDS011;38960;51.074;17.004;2023-03-14T14:00:56;6.72;;;3.25;;
46653;SDS011;38960;51.074;17.004;2023-03-14T14:03:24;7.45;;;3.40;;
46653;SDS011;38960;51.074;17.004;2023-03-14T14:05:49;12.23;;;3.90;;
46653;SDS011;38960;51.074;17.004;2023-03-14T14:08:15;9.10;;;3.40;;
46653;SDS011;38960;51.074;17.004;2023-03-14T14:10:41;5.88;;;3.67;;
46653;SDS011;38960;51.074;17.004;2023-03-14T14:13:08;8.55;;;3.38;;
46653;SDS011;38960;51.074;17.004;2023-03-14T14:15:38;6.57;;;3.40;;
46653;SDS011;38960;51.074;17.004;2023-03-14T14:18:07;7.43;;;3.58;;
46653;SDS011;38960;51.074;17.004;2023-03-14T14:20:40;7.90;;;3.80;;
46653;SDS011;38960;51.074;17.004;2023-03-14T14:23:11;7.88;;;3.40;;
46653;SDS011;38960;51.074;17.004;2023-03-14T14:25:38;9.00;;;4.20;;
46653;SDS011;38960;51.074;17.004;2023-03-14T14:28:14;7.10;;;3.55;;
46653;SDS011;38960;51.074;17.004;2023-03-14T14:31:06;6.13;;;3.72;;
46653;SDS011;38960;51.074;17.004;2023-03-14T14:33:56;8.68;;;3.50;;
46653;SDS011;38960;51.074;17.004;2023-03-14T14:36:27;11.35;;;3.55;;
46653;SDS011;38960;51.074;17.004;2023-03-14T14:38:58;6.72;;;3.13;;
46653;SDS011;38960;51.074;17.004;2023-03-14T14:41:34;6.93;;;3.17;;
46653;SDS011;38960;51.074;17.004;2023-03-14T14:44:01;6.85;;;3.15;;
46653;SDS011;38960;51.074;17.004;2023-03-14T14:46:29;9.98;;;3.80;;
46653;SDS011;38960;51.074;17.004;2023-03-14T14:48:56;5.20;;;3.28;;
46653;SDS011;38960;51.074;17.004;2023-03-14T14:51:30;5.43;;;3.40;;
46653;SDS011;38960;51.074;17.004;2023-03-14T14:54:04;5.63;;;3.13;;
46653;SDS011;38960;51.074;17.004;2023-03-14T14:56:36;10.75;;;3.55;;
46653;SDS011;38960;51.074;17.004;2023-03-14T14:59:03;8.82;;;4.03;;
46653;SDS011;38960;51.074;17.004;2023-03-14T15:01:37;6.55;;;3.38;;
46653;SDS011;38960;51.074;17.004;2023-03-14T15:04:11;5.05;;;3.20;;
46653;SDS011;38960;51.074;17.004;2023-03-14T15:06:39;10.38;;;3.90;;
46653;SDS011;38960;51.074;17.004;2023-03-14T15:09:08;8.15;;;4.50;;
46653;SDS011;38960;51.074;17.004;2023-03-14T15:11:35;10.10;;;4.45;;
46653;SDS011;38960;51.074;17.004;2023-03-14T15:14:00;11.45;;;4.00;;
46653;SDS011;38960;51.074;17.004;2023-03-14T15:16:30;9.48;;;4.97;;
46653;SDS011;38960;51.074;17.004;2023-03-14T15:18:58;7.15;;;4.50;;
46653;SDS011;38960;51.074;17.004;2023-03-14T15:21:25;6.28;;;3.80;;
46653;SDS011;38960;51.074;17.004;2023-03-14T15:23:52;13.30;;;4.10;;
46653;SDS011;38960;51.074;17.004;2023-03-14T15:26:18;6.97;;;3.97;;
46653;SDS011;38960;51.074;17.004;2023-03-14T15:28:45;7.90;;;4.05;;
46653;SDS011;38960;51.074;17.004;2023-03-14T15:31:12;11.15;;;4.70;;
46653;SDS011;38960;51.074;17.004;2023-03-14T15:33:38;10.70;;;4.82;;
46653;SDS011;38960;51.074;17.004;2023-03-14T15:36:04;13.88;;;5.60;;
46653;SDS011;38960;51.074;17.004;2023-03-14T15:38:32;9.00;;;4.03;;
46653;SDS011;38960;51.074;17.004;2023-03-14T15:40:58;12.23;;;4.60;;
46653;SDS011;38960;51.074;17.004;2023-03-14T15:43:23;6.15;;;3.72;;
46653;SDS011;38960;51.074;17.004;2023-03-14T15:45:49;14.65;;;3.67;;
46653;SDS011;38960;51.074;17.004;2023-03-14T15:48:19;15.60;;;4.55;;
46653;SDS011;38960;51.074;17.004;2023-03-14T15:50:46;8.77;;;4.47;;
46653;SDS011;38960;51.074;17.004;2023-03-14T15:53:12;7.15;;;3.75;;
46653;SDS011;38960;51.074;17.004;2023-03-14T15:55:38;7.80;;;2.90;;
46653;SDS011;38960;51.074;17.004;2023-03-14T15:58:04;6.55;;;2.90;;
46653;SDS011;38960;51.074;17.004;2023-03-14T16:00:30;6.90;;;3.00;;
46653;SDS011;38960;51.074;17.004;2023-03-14T16:02:57;6.80;;;2.97;;
46653;SDS011;38960;51.074;17.004;2023-03-14T16:05:22;9.82;;;2.88;;
46653;SDS011;38960;51.074;17.004;2023-03-14T16:07:48;9.38;;;2.88;;
46653;SDS011;38960;51.074;17.004;2023-03-14T16:10:14;6.07;;;2.95;;
46653;SDS011;38960;51.074;17.004;2023-03-14T16:12:40;6.70;;;2.35;;
46653;SDS011;38960;51.074;17.004;2023-03-14T16:15:07;3.80;;;2.20;;
46653;SDS011;38960;51.074;17.004;2023-03-14T16:17:33;7.35;;;2.53;;
46653;SDS011;38960;51.074;17.004;2023-03-14T16:19:59;6.63;;;2.38;;
46653;SDS011;38960;51.074;17.004;2023-03-14T16:25:45;5.80;;;2.10;;
46653;SDS011;38960;51.074;17.004;2023-03-14T16:28:11;6.60;;;2.55;;